This is the latest recevied weather packets stored in our database for station/object E23XBQ-1. If no packets are shown the sender has not sent any weather packets the latest 10 day(s).
| Time | Temp. | Humidity | Pressure | Rain* | Wind** | Luminosity | Snow |
|---|---|---|---|---|---|---|---|
| 1777961682 | 36.11° C | 46% | 972 hPa | - | - | 0 W/m² | - |
| 1777961058 | 35.56° C | 48% | 972 hPa | - | - | 0 W/m² | - |
| 1777960434 | 35.56° C | 48% | 973 hPa | - | - | 0 W/m² | - |
| 1777959809 | 35° C | 49% | 973 hPa | - | - | 0 W/m² | - |
| 1777959184 | 35.56° C | 49% | 973 hPa | - | - | 0 W/m² | - |
| 1777958560 | 34.44° C | 51% | 973 hPa | - | - | 0 W/m² | - |
| 1777957934 | 35° C | 50% | 974 hPa | - | - | 0 W/m² | - |
| 1777957309 | 34.44° C | 53% | 974 hPa | - | - | 0 W/m² | - |
| 1777956685 | 34.44° C | 53% | 974 hPa | - | - | 0 W/m² | - |
| 1777956059 | 34.44° C | 53% | 974 hPa | - | - | 0 W/m² | - |
| 1777955433 | 34.44° C | 52% | 974 hPa | - | - | 0 W/m² | - |
| 1777954808 | 34.44° C | 53% | 975 hPa | - | - | 0 W/m² | - |
| 1777954183 | 34.44° C | 52% | 975 hPa | - | - | 0 W/m² | - |
| 1777953559 | 34.44° C | 55% | 975 hPa | - | - | 0 W/m² | - |
| 1777952933 | 33.89° C | 55% | 975 hPa | - | - | 0 W/m² | - |
| 1777952309 | 33.89° C | 57% | 975 hPa | - | - | 0 W/m² | - |
| 1777951685 | 33.33° C | 58% | 975 hPa | - | - | 0 W/m² | - |
| 1777951060 | 32.22° C | 59% | 975 hPa | - | - | 0 W/m² | - |
| 1777950436 | 32.22° C | 59% | 975 hPa | - | - | 0 W/m² | - |
| 1777949811 | 32.78° C | 60% | 976 hPa | - | - | 0 W/m² | - |
| 1777949186 | 32.22° C | 64% | 976 hPa | - | - | 0 W/m² | - |
| 1777948562 | 32.22° C | 62% | 976 hPa | - | - | 0 W/m² | - |
| 1777947938 | 31.67° C | 67% | 976 hPa | - | - | 0 W/m² | - |
| 1777947313 | 31.11° C | 75% | 975 hPa | - | - | 0 W/m² | - |
| 1777946688 | 30° C | 79% | 975 hPa | - | - | 0 W/m² | - |
* Rain since midnight (hover to see other rain measurements)
** Current wind speed in m/s (hover to see current wind gust speed)